createdAt,value
2023-03-03T00:01:50.585Z,43.22
2023-03-03T00:04:21.332Z,43.30
2023-03-03T00:06:50.867Z,42.47
2023-03-03T00:09:20.430Z,43.57
2023-03-03T00:11:59.250Z,44.12
2023-03-03T00:14:32.206Z,43.88
2023-03-03T00:17:14.280Z,45.49
2023-03-03T00:19:47.540Z,43.78
2023-03-03T00:22:23.910Z,43.04
2023-03-03T00:24:53.199Z,43.37
2023-03-03T00:27:31.325Z,42.74
2023-03-03T00:30:01.404Z,44.12
2023-03-03T00:32:39.918Z,44.02
2023-03-03T00:35:26.115Z,44.73
2023-03-03T00:37:58.510Z,44.38
2023-03-03T00:40:33.083Z,43.60
2023-03-03T00:43:03.712Z,45.24
2023-03-03T00:45:39.841Z,42.97
2023-03-03T00:48:28.487Z,42.07
2023-03-03T00:51:00.548Z,43.39
2023-03-03T00:53:31.925Z,42.82
2023-03-03T00:56:01.331Z,41.89
2023-03-03T00:58:31.216Z,41.95
2023-03-03T01:01:00.638Z,43.35
2023-03-03T01:03:40.347Z,42.22
2023-03-03T01:06:11.999Z,41.41
2023-03-03T01:08:41.689Z,43.31
2023-03-03T01:11:16.316Z,44.16
2023-03-03T01:13:49.637Z,42.84
2023-03-03T01:16:19.519Z,42.56
2023-03-03T01:18:49.406Z,44.90
2023-03-03T01:21:20.202Z,42.73
2023-03-03T01:23:49.798Z,44.19
2023-03-03T01:26:19.101Z,42.47
2023-03-03T01:28:48.819Z,41.37
2023-03-03T01:31:19.784Z,44.26
2023-03-03T01:33:49.658Z,41.29
2023-03-03T01:36:25.321Z,44.08
2023-03-03T01:38:54.644Z,42.42
2023-03-03T01:41:23.941Z,43.56
2023-03-03T01:43:53.403Z,41.88
2023-03-03T01:46:44.492Z,42.69
2023-03-03T01:49:20.631Z,43.26
2023-03-03T01:51:53.636Z,42.82
2023-03-03T01:54:29.474Z,44.12
2023-03-03T01:57:04.219Z,42.59
2023-03-03T01:59:38.740Z,41.95
2023-03-03T02:02:09.218Z,42.58
2023-03-03T02:04:39.464Z,44.65
2023-03-03T02:07:12.337Z,44.07
2023-03-03T02:09:52.840Z,42.52
2023-03-03T02:12:32.378Z,45.25
2023-03-03T02:15:02.063Z,45.06
2023-03-03T02:17:31.445Z,40.71
2023-03-03T02:20:08.801Z,40.99
2023-03-03T02:22:46.535Z,42.71
2023-03-03T02:25:23.674Z,42.66
2023-03-03T02:27:56.522Z,43.36
2023-03-03T02:30:26.642Z,43.87
2023-03-03T02:32:56.132Z,44.30
2023-03-03T02:35:31.668Z,43.38
2023-03-03T02:38:10.989Z,43.93
2023-03-03T02:40:48.885Z,43.18
2023-03-03T02:43:23.931Z,42.65
2023-03-03T02:45:53.747Z,43.13
2023-03-03T02:48:23.229Z,44.22
2023-03-03T02:50:52.800Z,45.73
2023-03-03T02:53:22.179Z,42.17
2023-03-03T02:55:51.869Z,43.11
2023-03-03T02:58:22.727Z,42.95
2023-03-03T03:00:52.393Z,41.67
2023-03-03T03:03:24.983Z,43.23
2023-03-03T03:05:55.333Z,41.68
2023-03-03T03:08:26.252Z,41.83
2023-03-03T03:10:57.628Z,44.07
2023-03-03T03:13:31.195Z,43.64
2023-03-03T03:16:01.426Z,42.80
2023-03-03T03:18:32.214Z,43.52
2023-03-03T03:21:09.020Z,42.94
2023-03-03T03:23:38.679Z,44.55
2023-03-03T03:26:09.362Z,42.63
2023-03-03T03:28:40.471Z,42.76
2023-03-03T03:36:23.444Z,44.04
2023-03-03T03:38:53.938Z,42.21
2023-03-03T03:41:24.772Z,41.96
2023-03-03T03:43:55.708Z,43.43
2023-03-03T03:46:25.363Z,44.21
2023-03-03T03:48:55.232Z,43.18
2023-03-03T03:51:24.662Z,42.21
2023-03-03T03:53:54.238Z,42.25
2023-03-03T03:56:23.596Z,42.76
2023-03-03T03:58:58.115Z,41.23
2023-03-03T04:01:27.727Z,42.04
2023-03-03T04:03:57.482Z,42.95
2023-03-03T04:06:27.346Z,42.42
2023-03-03T04:08:57.584Z,41.36
2023-03-03T04:11:28.519Z,40.63
2023-03-03T04:13:59.865Z,40.32
2023-03-03T04:16:29.595Z,40.28
2023-03-03T04:18:59.397Z,39.14
2023-03-03T04:21:29.250Z,40.81
2023-03-03T04:24:01.780Z,40.30
2023-03-03T04:26:32.313Z,41.17
2023-03-03T04:29:05.898Z,39.44
2023-03-03T04:31:35.520Z,40.59
2023-03-03T04:34:06.752Z,40.61
2023-03-03T04:36:36.088Z,41.75
2023-03-03T04:39:05.873Z,39.35
2023-03-03T04:41:35.410Z,40.31
2023-03-03T04:44:07.582Z,41.14
2023-03-03T04:46:37.084Z,41.93
2023-03-03T04:49:10.798Z,40.91
2023-03-03T04:51:41.484Z,41.62
2023-03-03T04:54:11.196Z,41.01
2023-03-03T04:56:40.435Z,39.42
2023-03-03T04:59:12.052Z,42.87
2023-03-03T05:01:42.051Z,39.92
2023-03-03T05:04:12.396Z,41.27
2023-03-03T05:06:41.937Z,40.25
2023-03-03T05:09:11.592Z,41.54
2023-03-03T05:11:40.826Z,41.61
2023-03-03T05:14:12.554Z,42.50
2023-03-03T05:16:42.207Z,42.89
2023-03-03T05:19:11.939Z,40.72
2023-03-03T05:21:42.934Z,40.18
2023-03-03T05:24:14.039Z,39.67
2023-03-03T05:26:43.738Z,39.22
2023-03-03T05:29:14.742Z,39.46
2023-03-03T05:31:45.628Z,38.54
2023-03-03T05:34:15.510Z,40.10
2023-03-03T05:36:44.837Z,40.44
2023-03-03T05:39:14.525Z,39.50
2023-03-03T05:41:43.984Z,39.41
2023-03-03T05:44:14.999Z,37.55
2023-03-03T05:46:44.592Z,38.95
2023-03-03T05:49:14.136Z,37.36
2023-03-03T05:51:43.368Z,37.88
2023-03-03T05:54:13.163Z,36.45
2023-03-03T05:56:42.517Z,38.46
2023-03-03T05:59:13.474Z,39.94
2023-03-03T06:01:42.944Z,38.66
2023-03-03T06:04:12.567Z,38.56
2023-03-03T06:06:42.184Z,39.25
2023-03-03T06:09:11.986Z,37.68
2023-03-03T06:11:41.341Z,39.48
2023-03-03T06:14:10.797Z,39.38
2023-03-03T06:16:41.503Z,38.78
2023-03-03T06:19:11.236Z,38.92
2023-03-03T06:21:40.602Z,38.37
2023-03-03T06:24:10.511Z,38.07
2023-03-03T06:26:39.793Z,38.34
2023-03-03T06:29:09.770Z,38.96
2023-03-03T06:31:40.550Z,38.54
2023-03-03T06:34:10.366Z,38.49
2023-03-03T06:36:39.619Z,38.13
2023-03-03T06:39:09.174Z,38.16
2023-03-03T06:41:38.673Z,37.82
2023-03-03T06:44:08.195Z,38.54
2023-03-03T06:46:37.524Z,38.07
2023-03-03T06:49:08.681Z,36.93
2023-03-03T06:51:40.055Z,38.62
2023-03-03T06:54:14.423Z,38.95
2023-03-03T06:56:44.951Z,37.97
2023-03-03T06:59:16.244Z,37.05
2023-03-03T07:01:46.964Z,36.13
2023-03-03T07:04:28.884Z,37.06
2023-03-03T07:07:00.106Z,36.02
2023-03-03T07:09:31.000Z,37.68
2023-03-03T07:12:07.928Z,36.44
2023-03-03T07:14:43.462Z,37.77
2023-03-03T07:17:18.093Z,38.01
2023-03-03T07:19:50.111Z,36.08
2023-03-03T07:22:22.098Z,36.74
2023-03-03T07:24:53.782Z,33.65
2023-03-03T07:27:27.061Z,33.74
2023-03-03T07:30:02.756Z,34.35
2023-03-03T07:32:40.573Z,34.37
2023-03-03T07:35:31.157Z,35.76
2023-03-03T07:38:01.310Z,34.63
2023-03-03T07:40:38.479Z,31.85
2023-03-03T07:43:36.160Z,35.63
2023-03-03T07:46:22.924Z,34.88
2023-03-03T07:48:53.556Z,34.50
2023-03-03T07:51:27.619Z,34.29
2023-03-03T07:54:16.126Z,33.89
2023-03-03T07:56:45.777Z,34.77
2023-03-03T07:59:23.019Z,34.07
2023-03-03T08:01:55.433Z,35.21
2023-03-03T08:04:29.954Z,34.10
2023-03-03T08:07:03.412Z,33.72
2023-03-03T08:09:43.847Z,34.10
2023-03-03T08:12:35.357Z,33.83
2023-03-03T08:15:21.549Z,33.13
2023-03-03T08:17:52.706Z,32.40
2023-03-03T08:20:53.631Z,33.63
2023-03-03T08:23:25.294Z,33.09
2023-03-03T08:25:55.314Z,33.81
2023-03-03T08:28:25.364Z,32.96
2023-03-03T08:31:08.941Z,32.92
2023-03-03T08:33:44.804Z,31.83
2023-03-03T08:36:15.006Z,33.55
2023-03-03T08:38:46.271Z,31.62
2023-03-03T08:41:15.782Z,32.09
2023-03-03T08:43:45.826Z,32.36
2023-03-03T08:46:15.320Z,31.92
2023-03-03T08:48:45.212Z,32.68
2023-03-03T08:51:14.472Z,31.64
2023-03-03T08:53:45.450Z,33.86
2023-03-03T08:56:14.863Z,33.48
2023-03-03T08:59:01.289Z,33.04
2023-03-03T09:01:32.421Z,32.79
2023-03-03T09:04:02.040Z,34.04
2023-03-03T09:06:31.413Z,34.12
2023-03-03T09:09:02.953Z,34.15
2023-03-03T09:11:32.770Z,33.06
2023-03-03T09:14:08.627Z,31.48
2023-03-03T09:16:41.035Z,32.95
2023-03-03T09:19:25.277Z,33.38
2023-03-03T09:21:55.920Z,33.70
2023-03-03T09:24:31.653Z,32.24
2023-03-03T09:27:01.485Z,31.52
2023-03-03T09:29:32.514Z,31.67
2023-03-03T09:32:09.975Z,30.85
2023-03-03T09:34:41.831Z,31.13
2023-03-03T09:37:23.159Z,29.93
2023-03-03T09:39:56.005Z,32.60
2023-03-03T09:42:43.018Z,31.53
2023-03-03T09:45:31.874Z,30.74
2023-03-03T09:48:23.853Z,31.10
2023-03-03T09:51:12.246Z,28.95
2023-03-03T09:54:05.473Z,29.50
2023-03-03T09:56:43.521Z,29.21
2023-03-03T09:59:29.845Z,29.69
2023-03-03T10:02:25.826Z,29.56
2023-03-03T10:05:20.738Z,29.15
2023-03-03T10:08:02.036Z,30.26
2023-03-03T10:10:52.087Z,31.01
2023-03-03T10:13:34.829Z,29.65
2023-03-03T10:16:23.967Z,30.62
2023-03-03T10:18:59.753Z,30.08
2023-03-03T10:21:37.296Z,30.86
2023-03-03T10:24:22.092Z,29.84
2023-03-03T10:27:13.845Z,27.05
2023-03-03T10:29:59.507Z,28.23
2023-03-03T10:32:41.090Z,27.15
2023-03-03T10:35:26.140Z,25.40
2023-03-03T10:38:14.697Z,23.55
2023-03-03T10:40:52.742Z,23.28
2023-03-03T10:43:42.964Z,20.14
2023-03-03T10:46:38.370Z,19.54
2023-03-03T10:49:24.018Z,19.56
2023-03-03T10:52:19.365Z,20.32
2023-03-03T10:55:23.246Z,20.17
2023-03-03T10:58:04.136Z,22.86
2023-03-03T11:00:40.257Z,19.77
2023-03-03T11:03:40.090Z,17.51
2023-03-03T11:06:15.817Z,19.51
2023-03-03T11:08:51.482Z,21.49
2023-03-03T11:11:27.736Z,20.81
2023-03-03T11:14:05.218Z,21.79
2023-03-03T11:16:45.192Z,21.90
2023-03-03T11:19:32.111Z,21.12
2023-03-03T11:22:15.921Z,19.57
2023-03-03T11:24:56.222Z,19.66
2023-03-03T11:27:53.868Z,20.43
2023-03-03T11:30:38.082Z,20.22
2023-03-03T11:33:11.186Z,19.06
2023-03-03T11:35:47.670Z,19.56
2023-03-03T11:38:32.876Z,19.96
2023-03-03T11:41:09.575Z,17.92
2023-03-03T11:43:44.010Z,16.69
2023-03-03T11:46:17.685Z,17.85
2023-03-03T11:48:55.399Z,16.56
2023-03-03T11:51:35.618Z,17.42
2023-03-03T11:54:16.845Z,15.10
2023-03-03T11:56:48.728Z,15.18
2023-03-03T11:59:45.857Z,15.45
2023-03-03T12:02:29.228Z,15.05
2023-03-03T12:05:07.747Z,14.06
2023-03-03T12:07:46.139Z,14.83
2023-03-03T12:10:25.972Z,15.63
2023-03-03T12:13:04.045Z,15.05
2023-03-03T12:15:42.802Z,15.49
2023-03-03T12:18:36.294Z,16.70
2023-03-03T12:21:30.844Z,14.66
2023-03-03T12:24:31.122Z,14.47
2023-03-03T12:27:12.817Z,13.22
2023-03-03T12:29:51.382Z,12.55
2023-03-03T12:32:35.958Z,13.22
2023-03-03T12:35:13.473Z,14.76
2023-03-03T12:37:49.404Z,14.66
2023-03-03T12:40:22.037Z,15.84
2023-03-03T12:43:07.979Z,13.77
2023-03-03T12:45:45.362Z,14.94
2023-03-03T12:48:19.230Z,15.05
2023-03-03T12:51:00.500Z,12.99
2023-03-03T12:53:52.262Z,12.09
2023-03-03T12:56:31.401Z,12.12
2023-03-03T12:59:06.170Z,13.02
2023-03-03T13:01:44.529Z,13.48
2023-03-03T13:04:27.257Z,13.25
2023-03-03T13:07:03.880Z,14.28
2023-03-03T13:09:45.336Z,15.65
2023-03-03T13:12:33.839Z,14.66
2023-03-03T13:15:16.363Z,13.32
2023-03-03T13:18:01.134Z,13.72
2023-03-03T13:20:38.729Z,14.79
2023-03-03T13:23:14.911Z,13.96
2023-03-03T13:25:54.399Z,15.50
2023-03-03T13:28:32.623Z,14.56
2023-03-03T13:31:10.912Z,15.93
2023-03-03T13:33:41.875Z,16.33
2023-03-03T13:36:13.783Z,15.52
2023-03-03T13:38:48.654Z,15.40
2023-03-03T13:41:24.869Z,15.23
2023-03-03T13:43:58.638Z,14.49
2023-03-03T13:46:41.846Z,14.42
2023-03-03T13:49:26.125Z,15.12
2023-03-03T13:52:01.926Z,14.72
2023-03-03T13:54:49.476Z,14.61
2023-03-03T13:57:37.712Z,13.42
2023-03-03T14:00:17.342Z,14.70
2023-03-03T14:03:18.343Z,14.29
2023-03-03T14:05:50.113Z,13.45
2023-03-03T14:08:35.104Z,12.58
2023-03-03T14:11:12.834Z,12.28
2023-03-03T14:13:55.941Z,13.77
2023-03-03T14:16:46.747Z,14.97
2023-03-03T14:19:25.250Z,16.02
2023-03-03T14:22:07.149Z,18.06
2023-03-03T14:25:08.502Z,18.18
2023-03-03T14:27:41.460Z,19.62
2023-03-03T14:30:42.316Z,19.26
2023-03-03T14:33:25.744Z,19.38
2023-03-03T14:36:16.053Z,22.57
2023-03-03T14:38:48.373Z,23.38
2023-03-03T14:41:41.818Z,23.41
2023-03-03T14:44:28.353Z,22.96
2023-03-03T14:47:19.298Z,24.64
2023-03-03T14:49:49.288Z,22.31
2023-03-03T14:52:25.435Z,22.82
2023-03-03T14:54:57.118Z,23.20
2023-03-03T14:57:46.635Z,23.29
2023-03-03T15:00:34.682Z,25.33
2023-03-03T15:03:19.863Z,26.40
2023-03-03T15:05:53.636Z,25.23
2023-03-03T15:08:33.138Z,25.86
2023-03-03T15:11:21.561Z,25.03
2023-03-03T15:13:52.425Z,25.87
2023-03-03T15:16:26.258Z,27.09
2023-03-03T15:19:20.383Z,27.57
2023-03-03T15:22:01.230Z,27.83
2023-03-03T15:24:41.518Z,28.98
2023-03-03T15:27:20.458Z,29.41
2023-03-03T15:30:03.530Z,28.02
2023-03-03T15:32:42.322Z,28.39
2023-03-03T15:35:25.973Z,28.76
2023-03-03T15:38:04.251Z,27.75
2023-03-03T15:40:41.423Z,28.82
2023-03-03T15:43:23.117Z,29.71
2023-03-03T15:46:03.809Z,29.76
2023-03-03T15:48:47.398Z,29.54
2023-03-03T15:51:32.120Z,30.67
2023-03-03T15:54:24.106Z,30.62
2023-03-03T15:56:58.542Z,29.19
2023-03-03T15:59:46.477Z,29.00
2023-03-03T16:02:22.762Z,31.61
2023-03-03T16:05:01.559Z,31.51
2023-03-03T16:07:44.050Z,30.63
2023-03-03T16:10:26.281Z,29.10
2023-03-03T16:13:04.592Z,29.94
2023-03-03T16:15:46.818Z,30.38
2023-03-03T16:18:29.576Z,30.06
2023-03-03T16:21:20.391Z,30.60
2023-03-03T16:23:51.478Z,30.65
2023-03-03T16:26:38.274Z,30.99
2023-03-03T16:29:35.540Z,31.16
2023-03-03T16:32:13.022Z,31.26
2023-03-03T16:34:55.642Z,30.61
2023-03-03T16:37:31.752Z,30.93
2023-03-03T16:40:12.135Z,32.00
2023-03-03T16:42:41.876Z,29.80
2023-03-03T16:45:34.669Z,31.15
2023-03-03T16:48:27.339Z,32.26
2023-03-03T16:51:15.407Z,32.20
2023-03-03T16:53:55.937Z,30.39
2023-03-03T16:56:29.896Z,32.46
2023-03-03T16:59:18.730Z,33.21
2023-03-03T17:02:00.442Z,33.77
2023-03-03T17:04:41.245Z,32.59
2023-03-03T17:07:23.582Z,33.38
2023-03-03T17:10:18.076Z,32.42
2023-03-03T17:13:13.275Z,32.31
2023-03-03T17:15:54.086Z,32.68
2023-03-03T17:18:38.478Z,34.56
2023-03-03T17:21:17.463Z,33.73
2023-03-03T17:24:04.722Z,33.72
2023-03-03T17:26:58.587Z,33.01
2023-03-03T17:29:40.367Z,32.80
2023-03-03T17:32:28.269Z,33.77
2023-03-03T17:35:17.421Z,33.11
2023-03-03T17:37:55.177Z,32.03
2023-03-03T17:40:42.197Z,32.76
2023-03-03T17:43:16.810Z,33.32
2023-03-03T17:45:49.859Z,33.97
2023-03-03T17:48:55.866Z,34.51
2023-03-03T17:51:56.745Z,33.29
2023-03-03T17:54:44.373Z,34.73
2023-03-03T17:57:30.293Z,33.33
2023-03-03T18:00:15.648Z,32.56
2023-03-03T18:03:10.420Z,34.31
2023-03-03T18:06:04.924Z,34.08
2023-03-03T18:09:13.019Z,36.73
2023-03-03T18:12:00.231Z,34.18
2023-03-03T18:14:55.087Z,35.73
2023-03-03T18:17:52.340Z,34.82
2023-03-03T18:20:37.947Z,34.69
2023-03-03T18:23:41.633Z,32.72
2023-03-03T18:26:35.341Z,34.15
2023-03-03T18:29:29.871Z,34.89
2023-03-03T18:32:21.066Z,33.43
2023-03-03T18:35:10.663Z,34.05
2023-03-03T18:37:45.249Z,35.22
2023-03-03T18:40:29.551Z,33.61
2023-03-03T18:42:58.861Z,35.10
2023-03-03T18:45:51.917Z,36.23
2023-03-03T18:48:51.020Z,36.05
2023-03-03T18:51:52.384Z,34.94
2023-03-03T18:54:31.285Z,32.46
2023-03-03T18:57:19.640Z,35.11
2023-03-03T19:00:09.150Z,35.37
2023-03-03T19:02:49.722Z,35.76
2023-03-03T19:05:24.512Z,35.30
2023-03-03T19:08:02.826Z,35.20
2023-03-03T19:10:55.615Z,36.21
2023-03-03T19:13:47.072Z,35.06
2023-03-03T19:16:36.885Z,35.15
2023-03-03T19:19:15.657Z,34.98
2023-03-03T19:21:51.326Z,35.59
2023-03-03T19:24:34.590Z,35.67
2023-03-03T19:27:33.145Z,35.75
2023-03-03T19:30:55.433Z,36.04
2023-03-03T19:33:42.012Z,34.26
2023-03-03T19:36:45.728Z,35.95
2023-03-03T19:40:01.119Z,34.81
2023-03-03T19:42:45.022Z,36.40
2023-03-03T19:45:27.784Z,35.58
2023-03-03T19:48:07.653Z,36.02
2023-03-03T19:50:47.116Z,35.77
2023-03-03T19:53:32.706Z,34.77
2023-03-03T19:56:25.945Z,35.86
2023-03-03T19:59:17.970Z,36.70
2023-03-03T20:02:27.019Z,34.75
2023-03-03T20:05:09.600Z,35.78
2023-03-03T20:07:46.187Z,34.76
2023-03-03T20:10:36.788Z,35.30
2023-03-03T20:13:19.913Z,36.65
2023-03-03T20:15:57.848Z,35.71
2023-03-03T20:18:49.201Z,36.29
2023-03-03T20:21:29.702Z,35.83
2023-03-03T20:24:22.986Z,35.60
2023-03-03T20:27:01.369Z,35.33
2023-03-03T20:29:55.974Z,36.52
2023-03-03T20:32:37.836Z,34.67
2023-03-03T20:35:21.182Z,36.90
2023-03-03T20:38:00.426Z,35.64
2023-03-03T20:40:38.886Z,34.19
2023-03-03T20:43:21.535Z,36.21
2023-03-03T20:46:04.517Z,36.94
2023-03-03T20:49:02.267Z,36.58
2023-03-03T20:51:41.358Z,35.69
2023-03-03T20:54:22.515Z,36.29
2023-03-03T20:56:57.057Z,35.33
2023-03-03T20:59:33.666Z,34.72
2023-03-03T21:02:15.461Z,33.54
2023-03-03T21:04:46.294Z,35.49
2023-03-03T21:07:27.235Z,35.28
2023-03-03T21:10:16.718Z,34.28
2023-03-03T21:12:46.007Z,34.78
2023-03-03T21:15:29.532Z,34.36
2023-03-03T21:18:01.025Z,34.43
2023-03-03T21:20:34.309Z,35.59
2023-03-03T21:23:04.773Z,35.69
2023-03-03T21:25:53.287Z,36.79
2023-03-03T21:28:25.857Z,37.05
2023-03-03T21:31:11.104Z,35.99
2023-03-03T21:33:47.128Z,35.38
2023-03-03T21:36:18.310Z,35.26
2023-03-03T21:38:48.869Z,34.60
2023-03-03T21:41:19.191Z,34.80
2023-03-03T21:43:50.933Z,34.83
2023-03-03T21:46:22.003Z,34.27
2023-03-03T21:48:53.419Z,33.89
2023-03-03T21:51:24.521Z,35.41
2023-03-03T21:53:54.066Z,35.27
2023-03-03T21:56:23.868Z,33.73
2023-03-03T21:58:53.111Z,34.14
2023-03-03T22:01:24.159Z,34.93
2023-03-03T22:03:54.914Z,34.26
2023-03-03T22:06:25.010Z,32.89
2023-03-03T22:08:54.354Z,33.75
2023-03-03T22:11:24.184Z,32.44
2023-03-03T22:13:53.510Z,33.60
2023-03-03T22:16:23.328Z,34.30
2023-03-03T22:18:54.178Z,33.92
2023-03-03T22:21:23.955Z,32.14
2023-03-03T22:23:53.658Z,33.65
2023-03-03T22:26:23.471Z,36.20
2023-03-03T22:28:53.078Z,36.49
2023-03-03T22:31:22.989Z,35.95
2023-03-03T22:33:53.845Z,34.87
2023-03-03T22:36:23.537Z,33.47
2023-03-03T22:38:53.128Z,32.05
2023-03-03T22:41:23.153Z,32.67
2023-03-03T22:43:52.512Z,35.00
2023-03-03T22:46:22.332Z,35.27
2023-03-03T22:48:51.582Z,35.19
2023-03-03T22:51:22.681Z,33.97
2023-03-03T22:53:51.982Z,33.53
2023-03-03T22:56:21.723Z,35.12
2023-03-03T22:58:51.546Z,35.82
2023-03-03T23:01:21.240Z,35.69
2023-03-03T23:03:51.286Z,34.74
2023-03-03T23:06:22.239Z,35.47
2023-03-03T23:08:51.521Z,32.85
2023-03-03T23:11:21.787Z,33.72
2023-03-03T23:13:51.143Z,33.42
2023-03-03T23:16:21.052Z,34.61
2023-03-03T23:18:50.369Z,34.43
2023-03-03T23:21:21.339Z,32.98
2023-03-03T23:23:50.660Z,35.28
2023-03-03T23:26:20.284Z,34.30
2023-03-03T23:28:49.705Z,35.50
2023-03-03T23:31:19.276Z,33.96
2023-03-03T23:33:48.518Z,35.46
2023-03-03T23:36:18.239Z,35.15
2023-03-03T23:38:49.202Z,35.52
2023-03-03T23:41:18.850Z,35.92
2023-03-03T23:43:48.187Z,35.68
2023-03-03T23:46:17.988Z,35.75
2023-03-03T23:48:47.330Z,34.41
2023-03-03T23:51:17.064Z,34.05
2023-03-03T23:53:46.470Z,34.27
2023-03-03T23:56:17.456Z,35.52
2023-03-03T23:58:46.811Z,34.77
